createdAt,value
2024-05-09T00:00:41.773Z,776.43243
2024-05-09T00:05:44.196Z,733.74359
2024-05-09T00:10:46.099Z,695.21951
2024-05-09T00:15:47.536Z,704.49383
2024-05-09T00:20:48.973Z,695.21951
2024-05-09T00:25:50.515Z,799.55556
2024-05-09T00:30:51.959Z,891.69231
2024-05-09T00:35:53.436Z,836.75362
2024-05-09T00:40:54.930Z,836.75362
2024-05-09T00:45:56.306Z,836.75362
2024-05-09T00:50:57.795Z,953.83607
2024-05-09T00:55:59.319Z,863.40299
2024-05-09T01:01:00.860Z,0
2024-05-09T01:06:02.338Z,636.13483
2024-05-09T01:11:03.946Z,599.31915
2024-05-09T01:16:05.481Z,620.92308
2024-05-09T01:21:06.929Z,733.74359
2024-05-09T01:26:08.483Z,644
2024-05-09T01:31:09.943Z,572.57143
2024-05-09T01:36:11.264Z,572.57143
2024-05-09T01:41:12.739Z,572.57143
2024-05-09T01:46:14.159Z,530.66667
2024-05-09T01:51:15.622Z,536.30769
2024-05-09T01:56:17.263Z,504
2024-05-09T02:01:18.746Z,579.05155
2024-05-09T02:06:20.232Z,514.37037
2024-05-09T02:11:21.738Z,542.05825
2024-05-09T02:16:23.287Z,542.05825
2024-05-09T02:21:24.683Z,536.30769
2024-05-09T02:26:26.250Z,585.66667
2024-05-09T02:31:27.834Z,566.22222
2024-05-09T02:36:29.196Z,599.31915
2024-05-09T02:41:30.713Z,606.36559
2024-05-09T02:46:32.149Z,525.13208
2024-05-09T02:51:33.508Z,560
2024-05-09T02:56:35.132Z,572.57143
2024-05-09T03:01:36.739Z,560
2024-05-09T03:06:38.193Z,547.92157
2024-05-09T03:11:39.988Z,572.57143
2024-05-09T03:16:41.755Z,553.90099
2024-05-09T03:21:43.242Z,566.22222
2024-05-09T03:26:44.736Z,519.70093
2024-05-09T03:31:46.303Z,536.30769
2024-05-09T03:36:47.753Z,579.05155
2024-05-09T03:41:49.174Z,579.05155
2024-05-09T03:46:50.629Z,553.90099
2024-05-09T03:51:52.176Z,536.30769
2024-05-09T03:56:53.590Z,504
2024-05-09T04:01:55.239Z,400.2963
2024-05-09T04:06:56.704Z,530.66667
2024-05-09T04:11:58.635Z,461.64706
2024-05-09T04:17:00.248Z,479.65217
2024-05-09T04:22:01.747Z,484.35088
2024-05-09T04:27:03.162Z,396.94118
2024-05-09T04:32:04.708Z,377.80282
2024-05-09T04:37:06.269Z,444.81301
2024-05-09T04:42:07.917Z,432.88889
2024-05-09T04:47:09.391Z,489.13274
2024-05-09T04:52:10.791Z,504
2024-05-09T04:57:12.390Z,536.30769
2024-05-09T05:02:14.437Z,525.13208
2024-05-09T05:07:17.154Z,519.70093
2024-05-09T05:12:19.087Z,338.87179
2024-05-09T05:17:20.905Z,400.2963
2024-05-09T05:22:22.495Z,432.88889
2024-05-09T05:27:24.010Z,466.0339
2024-05-09T05:32:27.961Z,475.03448
2024-05-09T05:37:29.827Z,542.05825
2024-05-09T05:42:31.460Z,504
2024-05-09T05:47:32.980Z,489.13274
2024-05-09T05:52:34.498Z,436.8
2024-05-09T05:57:36.108Z,390.37681
2024-05-09T06:02:37.670Z,489.13274
2024-05-09T06:07:39.114Z,484.35088
2024-05-09T06:12:40.543Z,357.42282
2024-05-09T06:17:42.042Z,417.84615
2024-05-09T06:22:43.493Z,514.37037
2024-05-09T06:27:44.872Z,498.95495
2024-05-09T06:32:46.654Z,498.95495
2024-05-09T06:37:48.211Z,519.70093
2024-05-09T06:42:49.608Z,592.42105
2024-05-09T06:47:51.303Z,509.13761
2024-05-09T06:52:52.941Z,479.65217
2024-05-09T06:57:54.309Z,484.35088
2024-05-09T07:02:55.924Z,470.49573
2024-05-09T07:07:57.516Z,479.65217
2024-05-09T07:12:59.134Z,484.35088
2024-05-09T07:18:00.731Z,489.13274
2024-05-09T07:23:02.383Z,440.77419
2024-05-09T07:28:03.912Z,432.88889
2024-05-09T07:33:05.618Z,514.37037
2024-05-09T07:38:07.286Z,479.65217
2024-05-09T07:43:09.132Z,479.65217
2024-05-09T07:53:37.615Z,592.42105
2024-05-09T07:58:44.895Z,547.92157
2024-05-09T08:03:46.553Z,536.30769
2024-05-09T08:08:48.269Z,494
2024-05-09T08:13:49.667Z,504
2024-05-09T08:18:51.163Z,560
2024-05-09T08:23:52.695Z,553.90099
2024-05-09T08:28:54.247Z,572.57143
2024-05-09T08:33:55.819Z,542.05825
2024-05-09T08:38:57.259Z,547.92157
2024-05-09T08:43:58.657Z,509.13761
2024-05-09T08:49:00.472Z,484.35088
2024-05-09T08:54:02.150Z,494
2024-05-09T08:59:03.588Z,489.13274
2024-05-09T09:04:05.213Z,519.70093
2024-05-09T09:09:06.898Z,498.95495
2024-05-09T09:14:08.348Z,572.57143
2024-05-09T09:19:09.966Z,519.70093
2024-05-09T09:24:11.547Z,519.70093
2024-05-09T09:29:12.909Z,509.13761
2024-05-09T09:34:14.610Z,514.37037
2024-05-09T09:39:17.335Z,509.13761
2024-05-09T09:44:18.810Z,494
2024-05-09T09:49:20.342Z,498.95495
2024-05-09T09:54:21.803Z,504
2024-05-09T09:59:23.467Z,514.37037
2024-05-09T10:04:24.955Z,519.70093
2024-05-09T10:09:26.490Z,509.13761
2024-05-09T10:14:27.871Z,525.13208
2024-05-09T10:19:29.437Z,553.90099
2024-05-09T10:24:31.057Z,525.13208
2024-05-09T10:29:32.489Z,519.70093
2024-05-09T10:34:34.104Z,525.13208
2024-05-09T10:39:35.590Z,509.13761
2024-05-09T10:44:37.019Z,519.70093
2024-05-09T10:49:38.420Z,525.13208
2024-05-09T10:54:39.969Z,542.05825
2024-05-09T10:59:41.563Z,566.22222
2024-05-09T11:04:43.100Z,579.05155
2024-05-09T11:09:45.049Z,606.36559
2024-05-09T11:14:46.804Z,585.66667
2024-05-09T11:19:48.344Z,560
2024-05-09T11:24:49.882Z,530.66667
2024-05-09T11:29:51.320Z,542.05825
2024-05-09T11:34:52.862Z,525.13208
2024-05-09T11:39:54.407Z,547.92157
2024-05-09T11:44:55.940Z,547.92157
2024-05-09T11:49:57.442Z,530.66667
2024-05-09T11:54:59.225Z,530.66667
2024-05-09T12:00:00.690Z,530.66667
2024-05-09T12:05:02.233Z,525.13208
2024-05-09T12:10:06.214Z,525.13208
2024-05-09T12:15:09.592Z,525.13208
2024-05-09T12:20:20.992Z,553.90099
2024-05-09T12:25:27.258Z,560
2024-05-09T12:30:35.986Z,547.92157
2024-05-09T12:35:41.730Z,547.92157
2024-05-09T12:40:44.806Z,542.05825
2024-05-09T12:45:46.528Z,547.92157
2024-05-09T12:50:48.279Z,519.70093
2024-05-09T12:55:56.671Z,519.70093
2024-05-09T13:01:01.829Z,519.70093
2024-05-09T13:06:03.410Z,514.37037
2024-05-09T13:11:04.863Z,498.95495
2024-05-09T13:16:06.493Z,489.13274
2024-05-09T13:21:08.020Z,498.95495
2024-05-09T13:26:09.422Z,494
2024-05-09T13:31:10.836Z,470.49573
2024-05-09T13:36:12.282Z,466.0339
2024-05-09T13:41:13.936Z,475.03448
2024-05-09T13:46:15.494Z,484.35088
2024-05-09T13:51:16.921Z,498.95495
2024-05-09T13:56:18.285Z,509.13761
2024-05-09T14:01:20.076Z,494
2024-05-09T14:06:21.522Z,509.13761
2024-05-09T14:11:22.998Z,498.95495
2024-05-09T14:16:24.674Z,498.95495
2024-05-09T14:21:26.123Z,494
2024-05-09T14:26:27.583Z,494
2024-05-09T14:31:29.150Z,504
2024-05-09T14:36:30.759Z,479.65217
2024-05-09T14:41:32.201Z,509.13761
2024-05-09T14:46:33.618Z,484.35088
2024-05-09T14:51:35.255Z,461.64706
2024-05-09T14:56:36.730Z,440.77419
2024-05-09T15:01:38.304Z,429.03937
2024-05-09T15:06:39.875Z,444.81301
2024-05-09T15:11:41.584Z,440.77419
2024-05-09T15:16:43.015Z,436.8
2024-05-09T15:21:44.539Z,436.8
2024-05-09T15:26:46.053Z,461.64706
2024-05-09T15:31:47.530Z,479.65217
2024-05-09T15:36:49.020Z,494
2024-05-09T15:41:50.723Z,519.70093
2024-05-09T15:46:52.308Z,509.13761
2024-05-09T15:51:58.978Z,504
2024-05-09T15:57:00.477Z,484.35088
2024-05-09T16:02:01.994Z,484.35088
2024-05-09T16:07:03.606Z,466.0339
2024-05-09T16:12:05.431Z,489.13274
2024-05-09T16:17:07.941Z,509.13761
2024-05-09T16:22:09.618Z,547.92157
2024-05-09T16:27:11.060Z,560
2024-05-09T16:32:12.501Z,530.66667
2024-05-09T16:37:14.699Z,560
2024-05-09T16:42:16.120Z,585.66667
2024-05-09T16:47:17.493Z,579.05155
2024-05-09T16:52:19.036Z,585.66667
2024-05-09T16:57:20.531Z,547.92157
2024-05-09T17:02:22.128Z,579.05155
2024-05-09T17:07:23.822Z,585.66667
2024-05-09T17:12:25.342Z,613.56522
2024-05-09T17:17:27.121Z,613.56522
2024-05-09T17:22:28.715Z,599.31915
2024-05-09T17:27:30.283Z,644
2024-05-09T17:32:31.849Z,652.04598
2024-05-09T17:37:33.325Z,704.49383
2024-05-09T17:42:34.846Z,677.33333
2024-05-09T17:47:36.471Z,652.04598
2024-05-09T17:52:38.215Z,628.44444
2024-05-09T17:57:39.688Z,628.44444
2024-05-09T18:02:41.867Z,572.57143
2024-05-09T18:07:43.451Z,599.31915
2024-05-09T18:12:45.215Z,579.05155
2024-05-09T18:17:47.144Z,585.66667
2024-05-09T18:22:48.800Z,547.92157
2024-05-09T18:27:50.540Z,542.05825
2024-05-09T18:32:52.095Z,514.37037
2024-05-09T18:37:53.633Z,525.13208
2024-05-09T18:42:55.211Z,489.13274
2024-05-09T18:47:56.886Z,475.03448
2024-05-09T18:52:59.229Z,484.35088
2024-05-09T18:58:01.124Z,484.35088
2024-05-09T19:03:02.993Z,461.64706
2024-05-09T19:08:04.540Z,457.33333
2024-05-09T19:13:10.402Z,489.13274
2024-05-09T19:18:15.423Z,479.65217
2024-05-09T19:23:17.086Z,479.65217
2024-05-09T19:28:18.760Z,498.95495
2024-05-09T19:33:20.491Z,494
2024-05-09T19:38:21.985Z,470.49573
2024-05-09T19:43:23.374Z,461.64706
2024-05-09T19:48:24.912Z,494
2024-05-09T19:53:26.540Z,519.70093
2024-05-09T19:58:28.019Z,484.35088
2024-05-09T20:03:29.629Z,457.33333
2024-05-09T20:08:31.087Z,444.81301
2024-05-09T20:13:32.690Z,461.64706
2024-05-09T20:18:34.221Z,457.33333
2024-05-09T20:23:35.753Z,448.91803
2024-05-09T20:28:37.343Z,457.33333
2024-05-09T20:33:38.980Z,494
2024-05-09T20:38:40.467Z,484.35088
2024-05-09T20:43:41.876Z,470.49573
2024-05-09T20:48:43.392Z,461.64706
2024-05-09T20:53:45.054Z,498.95495
2024-05-09T20:58:46.482Z,498.95495
2024-05-09T21:03:48.015Z,585.66667
2024-05-09T21:08:49.706Z,553.90099
2024-05-09T21:13:51.076Z,660.27907
2024-05-09T21:18:52.511Z,636.13483
2024-05-09T21:23:53.840Z,660.27907
2024-05-09T21:28:55.297Z,714
2024-05-09T21:33:56.984Z,695.21951
2024-05-09T21:38:58.563Z,599.31915
2024-05-09T21:44:00.081Z,628.44444
2024-05-09T21:49:01.860Z,636.13483
2024-05-09T21:54:03.239Z,733.74359
2024-05-09T21:59:04.765Z,644
2024-05-09T22:04:06.505Z,695.21951
2024-05-09T22:09:07.984Z,644
2024-05-09T22:14:09.439Z,599.31915
2024-05-09T22:19:10.955Z,547.92157
2024-05-09T22:24:12.491Z,579.05155
2024-05-09T22:29:13.960Z,572.57143
2024-05-09T22:34:15.696Z,723.74684
2024-05-09T22:39:17.158Z,599.31915
2024-05-09T22:44:18.948Z,519.70093
2024-05-09T22:49:20.559Z,620.92308
2024-05-09T22:54:21.989Z,652.04598
2024-05-09T22:59:23.457Z,613.56522
2024-05-09T23:04:24.993Z,606.36559
2024-05-09T23:09:26.496Z,585.66667
2024-05-09T23:14:28.179Z,592.42105
2024-05-09T23:19:29.746Z,509.13761
2024-05-09T23:24:31.193Z,494
2024-05-09T23:29:32.701Z,498.95495
2024-05-09T23:34:34.180Z,504
2024-05-09T23:39:35.906Z,479.65217
2024-05-09T23:44:37.386Z,453.09091
2024-05-09T23:49:39.176Z,489.13274
2024-05-09T23:54:40.746Z,484.35088
2024-05-09T23:59:42.196Z,509.13761
